createdAt,value
2023-01-22T00:00:28.162Z,102046.84
2023-01-22T00:03:35.620Z,102043.47
2023-01-22T00:06:38.635Z,102044.31
2023-01-22T00:09:44.685Z,102039.25
2023-01-22T00:12:47.753Z,102041.81
2023-01-22T00:15:52.993Z,102044.38
2023-01-22T00:19:00.972Z,102040.16
2023-01-22T00:22:04.003Z,102045.28
2023-01-22T00:25:08.735Z,102046.13
2023-01-22T00:28:12.710Z,102047.00
2023-01-22T00:31:19.553Z,102038.47
2023-01-22T00:34:28.373Z,102032.44
2023-01-22T00:37:33.890Z,102032.44
2023-01-22T00:40:37.075Z,102043.59
2023-01-22T00:43:40.558Z,102042.69
2023-01-22T00:46:43.921Z,102045.25
2023-01-22T00:49:48.712Z,102043.56
2023-01-22T00:52:59.257Z,102045.25
2023-01-22T00:56:04.119Z,102036.75
2023-01-22T00:59:10.617Z,102035.91
2023-01-22T01:02:14.024Z,102034.16
2023-01-22T01:05:23.681Z,102036.66
2023-01-22T01:08:30.366Z,102039.28
2023-01-22T01:11:33.570Z,102042.69
2023-01-22T01:14:36.628Z,102045.28
2023-01-22T01:17:39.779Z,102043.56
2023-01-22T01:20:44.165Z,102051.31
2023-01-22T01:23:49.439Z,102059.03
2023-01-22T01:26:53.535Z,102051.34
2023-01-22T01:29:56.764Z,102042.78
2023-01-22T01:32:59.785Z,102065.00
2023-01-22T01:36:12.700Z,102054.69
2023-01-22T01:39:16.531Z,102058.94
2023-01-22T01:42:29.519Z,102058.06
2023-01-22T01:45:34.448Z,102058.09
2023-01-22T01:48:40.910Z,102061.44
2023-01-22T01:51:45.440Z,102066.63
2023-01-22T01:54:53.714Z,102067.47
2023-01-22T01:58:01.976Z,102071.75
2023-01-22T02:01:12.308Z,102070.91
2023-01-22T02:04:16.134Z,102076.03
2023-01-22T02:07:21.380Z,102067.44
2023-01-22T02:10:24.646Z,102072.59
2023-01-22T02:13:33.114Z,102076.03
2023-01-22T02:16:36.223Z,102074.34
2023-01-22T02:19:41.259Z,102080.31
2023-01-22T02:22:45.619Z,102081.16
2023-01-22T02:25:48.764Z,102096.50
2023-01-22T02:28:52.158Z,102090.50
2023-01-22T02:31:55.493Z,102078.56
2023-01-22T02:34:58.630Z,102074.34
2023-01-22T02:38:09.608Z,102069.16
2023-01-22T02:41:13.524Z,102076.03
2023-01-22T02:44:16.554Z,102069.28
2023-01-22T02:47:22.010Z,102071.81
2023-01-22T02:50:25.724Z,102080.41
2023-01-22T02:53:30.756Z,102065.81
2023-01-22T02:56:34.708Z,102082.09
2023-01-22T02:59:37.924Z,102064.13
2023-01-22T03:02:41.019Z,102081.25
2023-01-22T03:05:51.881Z,102081.22
2023-01-22T03:08:58.336Z,102080.34
2023-01-22T03:12:01.481Z,102092.38
2023-01-22T03:15:27.317Z,102089.78
2023-01-22T03:18:50.969Z,102092.28
2023-01-22T03:21:55.036Z,102100.03
2023-01-22T03:25:01.270Z,102105.16
2023-01-22T03:28:16.602Z,102106.91
2023-01-22T03:31:23.885Z,102105.22
2023-01-22T03:34:28.016Z,102106.13
2023-01-22T03:37:33.126Z,102104.34
2023-01-22T03:40:37.803Z,102103.53
2023-01-22T03:43:41.647Z,102095.00
2023-01-22T03:46:46.233Z,102100.16
2023-01-22T03:49:49.987Z,102101.84
2023-01-22T03:52:53.140Z,102102.69
2023-01-22T03:56:03.962Z,102096.66
2023-01-22T03:59:09.060Z,102106.91
2023-01-22T04:02:12.563Z,102108.53
2023-01-22T04:05:28.540Z,102101.78
2023-01-22T04:08:34.464Z,102110.34
2023-01-22T04:11:39.544Z,102110.34
2023-01-22T04:14:48.287Z,102104.28
2023-01-22T04:17:51.764Z,102118.88
2023-01-22T04:21:08.819Z,102114.59
2023-01-22T04:24:19.050Z,102120.66
2023-01-22T04:27:26.140Z,102124.06
2023-01-22T04:30:33.753Z,102126.63
2023-01-22T04:33:58.042Z,102132.63
2023-01-22T04:37:03.878Z,102130.03
2023-01-22T04:40:12.018Z,102130.00
2023-01-22T04:43:16.575Z,102132.59
2023-01-22T04:46:20.057Z,102132.56
2023-01-22T04:49:23.273Z,102142.84
2023-01-22T04:52:27.922Z,102151.41
2023-01-22T04:55:31.893Z,102143.66
2023-01-22T04:58:40.715Z,102159.09
2023-01-22T05:01:44.260Z,102156.53
2023-01-22T05:04:47.642Z,102156.56
2023-01-22T05:07:50.841Z,102166.81
2023-01-22T05:10:53.796Z,102171.09
2023-01-22T05:14:03.510Z,102171.09
2023-01-22T05:17:07.137Z,102167.66
2023-01-22T05:20:11.828Z,102178.78
2023-01-22T05:23:14.870Z,102181.38
2023-01-22T05:26:19.239Z,102182.25
2023-01-22T05:29:31.643Z,102186.53
2023-01-22T05:32:46.494Z,102199.38
2023-01-22T05:35:59.646Z,102196.81
2023-01-22T05:39:02.974Z,102194.31
2023-01-22T05:42:07.063Z,102193.47
2023-01-22T05:45:12.756Z,102201.16
2023-01-22T05:48:36.051Z,102202.88
2023-01-22T05:51:47.934Z,102210.63
2023-01-22T05:55:03.427Z,102208.88
2023-01-22T05:58:13.447Z,102209.75
2023-01-22T06:01:23.246Z,102214.06
2023-01-22T06:04:28.513Z,102214.88
2023-01-22T06:07:32.149Z,102220.88
2023-01-22T06:10:36.717Z,102220.06
2023-01-22T06:13:41.508Z,102215.75
2023-01-22T06:16:54.128Z,102228.56
2023-01-22T06:20:12.495Z,102235.41
2023-01-22T06:23:18.899Z,102235.41
2023-01-22T06:26:21.879Z,102234.50
2023-01-22T06:29:25.238Z,102235.38
2023-01-22T06:32:30.423Z,102237.94
2023-01-22T06:35:35.653Z,102240.50
2023-01-22T06:38:39.308Z,102236.22
2023-01-22T06:41:44.630Z,102243.94
2023-01-22T06:44:51.645Z,102239.69
2023-01-22T06:47:57.689Z,102239.66
2023-01-22T06:51:01.795Z,102242.25
2023-01-22T06:54:08.603Z,102235.38
2023-01-22T06:57:11.746Z,102234.50
2023-01-22T07:00:17.403Z,102247.34
2023-01-22T07:03:22.418Z,102235.41
2023-01-22T07:06:25.476Z,102242.22
2023-01-22T07:09:28.407Z,102235.34
2023-01-22T07:12:31.580Z,102249.06
2023-01-22T07:15:34.767Z,102245.63
2023-01-22T07:18:39.056Z,102255.88
2023-01-22T07:21:44.701Z,102257.59
2023-01-22T07:24:47.646Z,102272.97
2023-01-22T07:27:50.650Z,102272.94
2023-01-22T07:30:56.497Z,102281.50
2023-01-22T07:34:04.460Z,102282.34
2023-01-22T07:37:07.512Z,102280.66
2023-01-22T07:40:12.552Z,102290.06
2023-01-22T07:43:16.650Z,102296.03
2023-01-22T07:46:19.997Z,102296.91
2023-01-22T07:49:24.359Z,102302.88
2023-01-22T07:52:27.403Z,102297.72
2023-01-22T07:55:32.998Z,102298.56
2023-01-22T07:58:36.025Z,102306.25
2023-01-22T08:01:39.035Z,102308.84
2023-01-22T08:04:43.955Z,102310.53
2023-01-22T08:07:46.906Z,102318.25
2023-01-22T08:10:53.324Z,102323.41
2023-01-22T08:13:58.633Z,102326.84
2023-01-22T08:17:01.643Z,102323.41
2023-01-22T08:20:10.853Z,102320.84
2023-01-22T08:23:14.003Z,102327.66
2023-01-22T08:26:17.019Z,102329.34
2023-01-22T08:29:20.242Z,102332.75
2023-01-22T08:32:23.403Z,102334.50
2023-01-22T08:35:27.953Z,102336.22
2023-01-22T08:38:30.954Z,102332.81
2023-01-22T08:41:33.983Z,102336.22
2023-01-22T08:44:36.997Z,102336.22
2023-01-22T08:47:41.936Z,102344.72
2023-01-22T08:50:46.523Z,102345.56
2023-01-22T08:53:50.058Z,102348.13
2023-01-22T08:56:53.130Z,102361.78
2023-01-22T09:00:01.268Z,102363.47
2023-01-22T09:03:06.561Z,102373.75
2023-01-22T09:06:11.141Z,102366.91
2023-01-22T09:09:14.336Z,102372.88
2023-01-22T09:12:17.478Z,102375.47
2023-01-22T09:15:20.760Z,102389.19
2023-01-22T09:18:23.739Z,102393.44
2023-01-22T09:21:28.073Z,102392.56
2023-01-22T09:24:31.070Z,102384.00
2023-01-22T09:27:34.099Z,102383.97
2023-01-22T09:30:39.457Z,102387.41
2023-01-22T09:33:51.252Z,102389.97
2023-01-22T09:36:56.135Z,102396.78
2023-01-22T09:39:59.212Z,102389.97
2023-01-22T09:43:07.543Z,102405.38
2023-01-22T09:46:19.187Z,102402.81
2023-01-22T09:49:27.067Z,102410.47
2023-01-22T09:52:35.883Z,102411.31
2023-01-22T09:55:46.002Z,102401.09
2023-01-22T09:58:53.507Z,102403.63
2023-01-22T10:02:00.024Z,102404.53
2023-01-22T10:05:07.420Z,102401.94
2023-01-22T10:08:17.299Z,102404.44
2023-01-22T10:11:20.506Z,102401.03
2023-01-22T10:14:29.461Z,102414.72
2023-01-22T10:17:47.253Z,102410.41
2023-01-22T10:20:54.172Z,102408.75
2023-01-22T10:24:01.102Z,102407.03
2023-01-22T10:27:13.536Z,102406.94
2023-01-22T10:30:24.837Z,102417.28
2023-01-22T10:33:29.586Z,102408.72
2023-01-22T10:36:33.120Z,102414.66
2023-01-22T10:39:50.650Z,102412.09
2023-01-22T10:43:12.876Z,102422.31
2023-01-22T10:46:21.503Z,102419.81
2023-01-22T10:49:27.965Z,102424.06
2023-01-22T10:52:37.425Z,102412.94
2023-01-22T10:55:43.981Z,102415.53
2023-01-22T10:58:49.222Z,102406.94
2023-01-22T11:01:59.519Z,102400.97
2023-01-22T11:05:17.243Z,102400.06
2023-01-22T11:08:22.059Z,102413.78
2023-01-22T11:11:37.843Z,102408.66
2023-01-22T11:14:41.088Z,102412.09
2023-01-22T11:17:49.889Z,102412.97
2023-01-22T11:20:56.299Z,102412.91
2023-01-22T11:24:05.516Z,102410.31
2023-01-22T11:27:32.564Z,102412.91
2023-01-22T11:31:06.299Z,102418.00
2023-01-22T11:34:29.240Z,102415.47
2023-01-22T11:37:51.989Z,102417.09
2023-01-22T11:41:17.592Z,102418.91
2023-01-22T11:44:40.513Z,102417.22
2023-01-22T11:48:09.774Z,102410.38
2023-01-22T11:51:23.681Z,102412.09
2023-01-22T11:54:43.509Z,102411.19
2023-01-22T11:57:55.017Z,102406.03
2023-01-22T12:01:20.569Z,102412.91
2023-01-22T12:04:43.449Z,102409.47
2023-01-22T12:08:12.824Z,102412.03
2023-01-22T12:11:32.433Z,102405.16
2023-01-22T12:15:00.422Z,102412.00
2023-01-22T12:19:00.758Z,102420.59
2023-01-22T12:22:10.435Z,102416.25
2023-01-22T12:25:31.515Z,102422.22
2023-01-22T12:28:47.896Z,102417.13
2023-01-22T12:31:57.356Z,102425.69
2023-01-22T12:35:15.179Z,102421.44
2023-01-22T12:38:43.829Z,102417.19
2023-01-22T12:42:01.921Z,102423.13
2023-01-22T12:45:18.804Z,102418.00
2023-01-22T12:48:28.828Z,102422.31
2023-01-22T12:51:40.459Z,102429.16
2023-01-22T12:54:43.525Z,102423.13
2023-01-22T12:57:46.885Z,102433.41
2023-01-22T13:01:02.846Z,102429.13
2023-01-22T13:04:12.548Z,102428.22
2023-01-22T13:07:24.798Z,102431.63
2023-01-22T13:10:33.141Z,102431.69
2023-01-22T13:13:43.957Z,102426.56
2023-01-22T13:16:59.878Z,102433.44
2023-01-22T13:20:14.763Z,102430.00
2023-01-22T13:23:21.620Z,102433.47
2023-01-22T13:26:29.480Z,102431.72
2023-01-22T13:29:37.338Z,102435.16
2023-01-22T13:32:43.661Z,102435.13
2023-01-22T13:35:48.013Z,102434.28
2023-01-22T13:38:59.271Z,102430.00
2023-01-22T13:42:07.329Z,102438.59
2023-01-22T13:45:19.087Z,102439.47
2023-01-22T13:48:25.222Z,102435.25
2023-01-22T13:51:28.460Z,102431.84
2023-01-22T13:54:36.490Z,102437.81
2023-01-22T13:57:46.282Z,102432.66
2023-01-22T14:00:53.785Z,102436.97
2023-01-22T14:04:04.545Z,102438.66
2023-01-22T14:07:07.985Z,102443.88
2023-01-22T14:10:18.628Z,102437.00
2023-01-22T14:13:21.813Z,102440.44
2023-01-22T14:16:24.912Z,102438.72
2023-01-22T14:19:29.067Z,102439.59
2023-01-22T14:22:32.117Z,102448.13
2023-01-22T14:25:39.641Z,102460.13
2023-01-22T14:28:42.860Z,102452.41
2023-01-22T14:31:45.927Z,102447.25
2023-01-22T14:34:50.960Z,102453.28
2023-01-22T14:37:55.512Z,102450.69
2023-01-22T14:41:00.220Z,102453.25
2023-01-22T14:44:04.076Z,102457.56
2023-01-22T14:47:09.379Z,102454.06
2023-01-22T14:50:13.103Z,102465.25
2023-01-22T14:53:18.051Z,102464.41
2023-01-22T14:56:23.076Z,102463.56
2023-01-22T14:59:26.671Z,102462.72
2023-01-22T15:02:30.142Z,102462.69
2023-01-22T15:05:35.478Z,102460.13
2023-01-22T15:08:40.780Z,102467.81
2023-01-22T15:11:45.539Z,102472.13
2023-01-22T15:14:48.571Z,102474.69
2023-01-22T15:17:51.911Z,102473.84
2023-01-22T15:20:56.056Z,102476.41
2023-01-22T15:24:01.448Z,102478.13
2023-01-22T15:27:08.618Z,102477.25
2023-01-22T15:35:37.523Z,102490.94
2023-01-22T15:38:43.291Z,102487.50
2023-01-22T15:41:47.233Z,102498.66
2023-01-22T15:44:51.542Z,102501.22
2023-01-22T15:47:54.871Z,102507.25
2023-01-22T15:51:08.593Z,102507.19
2023-01-22T15:54:16.129Z,102516.63
2023-01-22T15:57:19.865Z,102516.66
2023-01-22T16:00:27.923Z,102520.97
2023-01-22T16:03:30.897Z,102525.25
2023-01-22T16:06:35.559Z,102522.69
2023-01-22T16:09:41.506Z,102529.53
2023-01-22T16:12:44.731Z,102524.38
2023-01-22T16:15:58.031Z,102526.09
2023-01-22T16:19:03.500Z,102527.78
2023-01-22T16:22:06.503Z,102538.03
2023-01-22T16:25:10.421Z,102541.47
2023-01-22T16:28:13.422Z,102537.22
2023-01-22T16:31:19.871Z,102541.47
2023-01-22T16:34:23.769Z,102537.19
2023-01-22T16:37:26.966Z,102543.19
2023-01-22T16:40:30.007Z,102545.75
2023-01-22T16:43:34.320Z,102549.16
2023-01-22T16:46:42.047Z,102559.47
2023-01-22T16:49:47.110Z,102555.19
2023-01-22T16:52:50.094Z,102562.03
2023-01-22T16:55:53.165Z,102562.00
2023-01-22T16:58:56.226Z,102562.03
2023-01-22T17:02:03.021Z,102556.06
2023-01-22T17:05:12.827Z,102566.34
2023-01-22T17:08:16.279Z,102568.06
2023-01-22T17:11:19.742Z,102573.19
2023-01-22T17:14:27.107Z,102574.88
2023-01-22T17:18:19.857Z,102578.31
2023-01-22T17:21:23.437Z,102578.34
2023-01-22T17:24:27.862Z,102580.91
2023-01-22T17:27:32.198Z,102577.47
2023-01-22T17:30:35.735Z,102584.31
2023-01-22T17:33:47.096Z,102586.88
2023-01-22T17:36:51.267Z,102592.00
2023-01-22T17:39:54.475Z,102592.88
2023-01-22T17:42:57.880Z,102602.31
2023-01-22T17:46:01.076Z,102605.72
2023-01-22T17:49:06.994Z,102607.38
2023-01-22T17:52:11.582Z,102606.53
2023-01-22T17:55:14.794Z,102604.81
2023-01-22T17:58:18.764Z,102607.41
2023-01-22T18:01:25.701Z,102609.16
2023-01-22T18:04:32.979Z,102615.97
2023-01-22T18:07:36.104Z,102620.28
2023-01-22T18:10:39.443Z,102623.69
2023-01-22T18:13:43.261Z,102620.25
2023-01-22T18:16:46.639Z,102616.81
2023-01-22T18:19:51.167Z,102609.97
2023-01-22T18:22:54.709Z,102621.13
2023-01-22T18:25:58.391Z,102621.13
2023-01-22T18:29:01.631Z,102628.84
2023-01-22T18:32:05.467Z,102633.97
2023-01-22T18:35:11.219Z,102636.53
2023-01-22T18:38:14.692Z,102635.69
2023-01-22T18:41:30.012Z,102632.25
2023-01-22T18:44:33.238Z,102631.41
2023-01-22T18:47:37.130Z,102628.84
2023-01-22T18:50:44.609Z,102634.00
2023-01-22T18:53:47.754Z,102635.69
2023-01-22T18:56:51.255Z,102632.28
2023-01-22T18:59:54.787Z,102630.56
2023-01-22T19:02:59.118Z,102640.84
2023-01-22T19:06:13.321Z,102633.13
2023-01-22T19:09:17.156Z,102627.13
2023-01-22T19:12:20.564Z,102629.72
2023-01-22T19:15:24.617Z,102633.97
2023-01-22T19:18:29.459Z,102634.84
2023-01-22T19:21:36.177Z,102630.56
2023-01-22T19:24:39.176Z,102637.41
2023-01-22T19:27:42.489Z,102627.16
2023-01-22T19:30:47.883Z,102620.31
2023-01-22T19:33:54.597Z,102632.28
2023-01-22T19:37:02.373Z,102640.84
2023-01-22T19:40:09.018Z,102651.97
2023-01-22T19:43:13.783Z,102657.97
2023-01-22T19:46:19.326Z,102657.97
2023-01-22T19:49:22.460Z,102662.22
2023-01-22T19:52:28.021Z,102665.66
2023-01-22T19:55:31.177Z,102662.25
2023-01-22T19:58:34.535Z,102661.38
2023-01-22T20:01:38.045Z,102674.22
2023-01-22T20:04:41.926Z,102674.22
2023-01-22T20:07:46.320Z,102691.34
2023-01-22T20:10:51.020Z,102688.75
2023-01-22T20:13:54.988Z,102698.19
2023-01-22T20:17:00.033Z,102698.16
2023-01-22T20:20:07.902Z,102697.31
2023-01-22T20:23:17.358Z,102699.03
2023-01-22T20:26:22.764Z,102702.47
2023-01-22T20:29:29.229Z,102704.19
2023-01-22T20:32:32.677Z,102700.75
2023-01-22T20:35:35.742Z,102705.03
2023-01-22T20:38:41.631Z,102705.88
2023-01-22T20:41:45.710Z,102693.91
2023-01-22T20:44:50.000Z,102702.44
2023-01-22T20:47:53.364Z,102716.16
2023-01-22T20:50:56.750Z,102718.72
2023-01-22T20:54:01.425Z,102712.75
2023-01-22T20:57:06.591Z,102723.00
2023-01-22T21:00:12.737Z,102719.56
2023-01-22T21:03:15.801Z,102719.59
2023-01-22T21:06:21.377Z,102724.72
2023-01-22T21:09:27.973Z,102735.84
2023-01-22T21:12:31.006Z,102733.28
2023-01-22T21:15:34.431Z,102745.25
2023-01-22T21:18:41.370Z,102748.69
2023-01-22T21:21:44.984Z,102741.00
2023-01-22T21:24:49.744Z,102752.13
2023-01-22T21:27:53.291Z,102758.94
2023-01-22T21:31:05.272Z,102758.09
2023-01-22T21:34:10.603Z,102754.66
2023-01-22T21:37:14.092Z,102755.53
2023-01-22T21:40:19.490Z,102760.69
2023-01-22T21:43:40.339Z,102757.22
2023-01-22T21:46:45.976Z,102753.81
2023-01-22T21:49:52.029Z,102754.66
2023-01-22T21:52:55.310Z,102752.09
2023-01-22T21:55:59.674Z,102753.84
2023-01-22T21:59:02.727Z,102760.66
2023-01-22T22:02:06.165Z,102764.06
2023-01-22T22:05:12.037Z,102767.50
2023-01-22T22:08:16.288Z,102770.09
2023-01-22T22:11:20.788Z,102770.09
2023-01-22T22:14:25.000Z,102777.78
2023-01-22T22:17:28.009Z,102783.78
2023-01-22T22:20:32.508Z,102785.50
2023-01-22T22:23:36.639Z,102789.78
2023-01-22T22:26:41.455Z,102790.63
2023-01-22T22:29:44.441Z,102797.47
2023-01-22T22:32:47.975Z,102792.34
2023-01-22T22:35:51.050Z,102791.47
2023-01-22T22:38:54.907Z,102796.63
2023-01-22T22:41:59.263Z,102797.47
2023-01-22T22:45:02.252Z,102805.16
2023-01-22T22:48:06.791Z,102796.63
2023-01-22T22:51:15.046Z,102804.34
2023-01-22T22:54:20.031Z,102810.34
2023-01-22T22:57:26.719Z,102804.31
2023-01-22T23:00:29.945Z,102808.59
2023-01-22T23:03:33.703Z,102802.63
2023-01-22T23:06:37.983Z,102814.59
2023-01-22T23:09:49.588Z,102812.03
2023-01-22T23:12:54.191Z,102810.31
2023-01-22T23:16:01.560Z,102805.19
2023-01-22T23:19:08.198Z,102815.47
2023-01-22T23:22:14.674Z,102812.88
2023-01-22T23:25:19.723Z,102832.59
2023-01-22T23:28:24.167Z,102832.59
2023-01-22T23:31:28.205Z,102839.44
2023-01-22T23:34:31.284Z,102833.44
2023-01-22T23:37:34.567Z,102842.84
2023-01-22T23:40:37.798Z,102848.84
2023-01-22T23:43:42.504Z,102852.28
2023-01-22T23:46:45.694Z,102856.53
2023-01-22T23:49:51.923Z,102857.41
2023-01-22T23:52:57.732Z,102865.09
2023-01-22T23:56:01.875Z,102861.69
2023-01-22T23:59:10.547Z,102867.69
